Fall River, Massachusetts
Current Conditions -  °F | °C
As of 3:53 AM on Sunday 21 Dec 2014 (Local Time) from KEWB Reporting Station
Light Rain Light Rain  
Wind Chill: -1°   Ceiling: 700
Heat Index:   Visibility: 6mi
Dew Point:   Wind: 6mph
Humidity: 100%   Direction: 10°N
Pressure: 30.25"   Gusts: NA
Location:  41.7°N, 71.14°W
Report Text: KEWB 210853Z AUTO 01005KT 6SM -RA BR BKN007 OVC013 02/02 A3025 RMK AO2 RAE37B41UPB37E41 SLP243 P0001 60002 T00170017 50001
Loading
Personal Weather Stations






























Interactive Weather Map New forecast layout! Learn more

10-Day Weather Forecast

Advertisements
Track Severe Weather on mobile